RYR34KC EPKK-LIEO
Flight info
| Callsign | RYR34KC |
|---|---|
| Flight time | N/A |
| Altitude | 34000 |
| Route | BABKO DCT VADEX L856 KOPAT DCT MAREG DCT GIRDA DCT BAXON DCT GITRI |
| Aircraft | B738/M-SDE2E3FGHIRWXY/LB1 |
Departure
| Time | 2026-05-01 13:41 |
|---|---|
| Airport | Kraków John Paul II International Airport (EPKK) |
Arrival
| Time | N/A |
|---|---|
| Airport | Olbia Costa Smeralda Airport (LIEO) |
| Time | Latitude | Longitude | Altitude | Speed | Heading |
|---|---|---|---|---|---|
| 2026-05-01 13:20 | 50.07472 | 19.80080 | 800 ft | 0 kts | 168° |
| 2026-05-01 13:38 | 50.07426 | 19.80095 | 799 ft | 8 kts | 168° |
| 2026-05-01 13:38 | 50.07415 | 19.80136 | 799 ft | 6 kts | 82° |
| 2026-05-01 13:38 | 50.07426 | 19.80218 | 799 ft | 10 kts | 77° |
| 2026-05-01 13:39 | 50.07444 | 19.80339 | 799 ft | 10 kts | 71° |
| 2026-05-01 13:39 | 50.07504 | 19.80393 | 799 ft | 11 kts | 18° |
| 2026-05-01 13:39 | 50.07588 | 19.80423 | 799 ft | 13 kts | 2° |
| 2026-05-01 13:39 | 50.07673 | 19.80396 | 799 ft | 13 kts | 348° |
| 2026-05-01 13:40 | 50.07758 | 19.80367 | 799 ft | 12 kts | 347° |
| 2026-05-01 13:40 | 50.07842 | 19.80337 | 799 ft | 12 kts | 347° |
| 2026-05-01 13:40 | 50.07929 | 19.80307 | 799 ft | 14 kts | 347° |
| 2026-05-01 13:40 | 50.08017 | 19.80239 | 799 ft | 13 kts | 274° |
| 2026-05-01 13:41 | 50.07975 | 19.79918 | 799 ft | 64 kts | 258° |
| 2026-05-01 13:41 | 50.07828 | 19.78869 | 801 ft | 132 kts | 258° |
| 2026-05-01 13:41 | 50.07596 | 19.77238 | 964 ft | 170 kts | 260° |
| 2026-05-01 13:41 | 50.07350 | 19.75449 | 1842 ft | 167 kts | 262° |
| 2026-05-01 13:42 | 50.07095 | 19.73680 | 2590 ft | 175 kts | 262° |
| 2026-05-01 13:42 | 50.06803 | 19.71649 | 2941 ft | 207 kts | 261° |
| 2026-05-01 13:42 | 50.06463 | 19.69314 | 3153 ft | 232 kts | 259° |
| 2026-05-01 13:42 | 50.05917 | 19.66894 | 3593 ft | 254 kts | 239° |